W.p. Scott — WDJ2782 — position and weather

sailwx.info

Track history (hours):
 
Tides and Currents Weather Stations Pressure Air Temp Water Temp Dewpoint Dewpoint Depression Visibility Wind Speed Wind Dir Waves Ship Positions

W.p. Scott

Owner: MOBRO Marine, Inc., Green Cove Springs, FL. More information available from US FCC via Universal Licensing System and Coast Guard Vessel Documentation Center.

Last reported at 2018-Dec-12 17:37 UTC. Time now 2019-Feb-17 07:59 UTC.
Position N 26°59' W 080°05'.
Warning: this ship's position is months out of date.

Length 13 m.

Type: Tug. MMSI: 367761670.

Date/timePositionNaut miles runAvg speedWind from/ knotsBaromVisibWave heightAir tempDewpointWater temp
2018-Dec-12 17:37N 26°59' W 080°05'1 7.1
2018-Dec-12 17:30N 26°58' W 080°05'2 4.5
2018-Dec-12 17:00N 26°56' W 080°05'14 5.6
2018-Dec-12 14:29N 26°42' W 080°03'2 5.1
2018-Dec-12 14:00N 26°40' W 080°03'3 5.7
2018-Dec-12 13:30N 26°37' W 080°03'18 4.5
2018-Dec-12 09:31N 26°19' W 080°05'0 5.3
2018-Dec-12 09:28N 26°19' W 080°05'3 5.3
2018-Dec-12 09:00N 26°16' W 080°05'3 5.2
2018-Dec-12 08:30N 26°14' W 080°06'3 5.1
2018-Dec-12 07:59N 26°11' W 080°06'3 5.2
2018-Dec-12 07:29N 26°08' W 080°06'2 4.4
2018-Dec-12 06:59N 26°06' W 080°07'3 6.0
2018-Dec-12 06:31N 26°03' W 080°07'3 6.0
2018-Dec-12 06:00N 26°00' W 080°07'3 6.2
2018-Dec-12 05:30N 25°57' W 080°08'3 5.8
2018-Dec-12 05:00N 25°54' W 080°08'3 5.4
2018-Dec-12 04:30N 25°52' W 080°09'2 4.7
2018-Dec-12 04:00N 25°50' W 080°10'3 5.6
2018-Dec-12 03:30N 25°47' W 080°11'1 2.7
2018-Dec-12 03:00N 25°46' W 080°10'0 0.0
2018-Dec-12 02:30N 25°46' W 080°10'0 0.0
2018-Dec-12 02:00N 25°46' W 080°10'0 0.0
2018-Dec-12 01:30N 25°46' W 080°10'0 0.0
2018-Dec-12 01:00N 25°46' W 080°10'0 0.0
2018-Dec-12 00:30N 25°46' W 080°10'0 0.0
2018-Dec-11 23:58N 25°46' W 080°10'0 0.0
2018-Dec-11 23:28N 25°46' W 080°10'0 0.0
2018-Dec-11 22:58N 25°46' W 080°10'0 0.0
2018-Dec-11 22:30N 25°46' W 080°10'0 0.0
2018-Dec-11 22:00N 25°46' W 080°10'0 0.0
2018-Dec-11 21:29N 25°46' W 080°10'0 0.0
2018-Dec-11 20:59N 25°46' W 080°10'0 0.0
2018-Dec-11 20:30N 25°46' W 080°10'0 0.0
2018-Dec-11 19:59N 25°46' W 080°10'0 0.0
2018-Dec-11 19:29N 25°46' W 080°10'0 0.0
2018-Dec-11 18:54N 25°46' W 080°10'0 0.0
2018-Dec-11 18:26N 25°46' W 080°10'0 0.0
2018-Dec-11 17:59N 25°46' W 080°10'0 0.0
2018-Dec-11 17:28N 25°46' W 080°10'0 0.0
2018-Dec-11 16:58N 25°46' W 080°10'0 0.0
2018-Dec-11 16:29N 25°46' W 080°10'0 0.0
2018-Dec-11 16:00N 25°46' W 080°10'0 0.0
2018-Dec-11 15:28N 25°46' W 080°10'0 0.0
2018-Dec-11 14:53N 25°46' W 080°10'0 0.0
2018-Dec-11 14:30N 25°46' W 080°10'0 0.0
2018-Dec-11 14:00N 25°46' W 080°10'0 0.0
2018-Dec-11 13:28N 25°46' W 080°10'0 0.0
2018-Dec-11 12:58N 25°46' W 080°10'0 0.0
2018-Dec-11 12:28N 25°46' W 080°10'0 0.0
2018-Dec-11 11:58N 25°46' W 080°10'0 0.0
2018-Dec-11 11:30N 25°46' W 080°10'0 0.0
2018-Dec-11 11:00N 25°46' W 080°10'0 0.0
2018-Dec-11 10:30N 25°46' W 080°10'0 0.0
2018-Dec-11 09:57N 25°46' W 080°10'0 0.0
2018-Dec-11 09:30N 25°46' W 080°10'0 0.0
2018-Dec-11 09:00N 25°46' W 080°10'0 0.6
2018-Dec-11 08:30N 25°46' W 080°10'0 0.0
2018-Dec-11 08:00N 25°46' W 080°10'0 0.0
2018-Dec-11 07:29N 25°46' W 080°10'0 0.0
2018-Dec-11 06:56N 25°46' W 080°10'0 0.0
2018-Dec-11 06:29N 25°46' W 080°10'0 0.0
2018-Dec-11 05:59N 25°46' W 080°10'0 0.0
2018-Dec-11 05:29N 25°46' W 080°10'0 0.0
2018-Dec-11 04:59N 25°46' W 080°10'0 0.0
2018-Dec-11 04:29N 25°46' W 080°10'0 0.0
2018-Dec-11 03:58N 25°46' W 080°10'0 0.0
2018-Dec-11 03:30N 25°46' W 080°10'0 0.0
2018-Dec-11 02:58N 25°46' W 080°10'0 0.0
2018-Dec-11 02:29N 25°46' W 080°10'0 0.0
2018-Dec-11 01:59N 25°46' W 080°10'0 0.0
2018-Dec-11 01:29N 25°46' W 080°10'0 0.0
2018-Dec-11 00:53N 25°46' W 080°10'0 0.0
2018-Dec-11 00:28N 25°46' W 080°10'0 0.0
2018-Dec-11 00:00N 25°46' W 080°10'0 0.0
2018-Dec-10 23:31N 25°46' W 080°10'0 0.0
2018-Dec-10 23:00N 25°46' W 080°10'0 0.0
2018-Dec-10 22:28N 25°46' W 080°10'0 0.0
2018-Dec-10 22:00N 25°46' W 080°10'0 0.0
2018-Dec-10 21:30N 25°46' W 080°10'0 0.0
2018-Dec-10 20:59N 25°46' W 080°10'0 0.0
2018-Dec-10 20:30N 25°46' W 080°10'0 0.0
2018-Dec-10 19:59N 25°46' W 080°10'0 0.0
2018-Dec-10 19:29N 25°46' W 080°10'0 0.0
2018-Dec-10 18:59N 25°46' W 080°10'0 0.0
2018-Dec-10 18:29N 25°46' W 080°10'0 0.0
2018-Dec-10 17:56N 25°46' W 080°10'0 0.0
2018-Dec-10 17:29N 25°46' W 080°10'0 0.0
2018-Dec-10 17:00N 25°46' W 080°10'0 0.0
2018-Dec-10 16:30N 25°46' W 080°10'0 0.0
2018-Dec-10 16:00N 25°46' W 080°10'0 0.0
2018-Dec-10 15:28N 25°46' W 080°10'0 0.0
2018-Dec-10 14:58N 25°46' W 080°10'0 0.0
2018-Dec-10 14:27N 25°46' W 080°10'1 1.4
2018-Dec-10 14:00N 25°47' W 080°11'2 4.2
2018-Dec-10 13:29N 25°49' W 080°11'3 5.1
2018-Dec-10 13:00N 25°51' W 080°10'3 5.6
2018-Dec-10 12:28N 25°54' W 080°08'2 3.9
2018-Dec-10 11:59N 25°56' W 080°08'0 0.0
2018-Dec-10 11:30N 25°56' W 080°08'0 0.0
2018-Dec-10 10:57N 25°56' W 080°08'0 0.2
2018-Dec-10 10:30N 25°56' W 080°08'0 0.0
2018-Dec-10 09:59N 25°56' W 080°08'0 0.0
2018-Dec-10 09:30N 25°56' W 080°08'0 0.0
2018-Dec-10 09:00N 25°56' W 080°08'0 0.0
2018-Dec-10 08:13N 25°56' W 080°08'0 0.0
2018-Dec-10 08:00N 25°56' W 080°08'0 0.0
2018-Dec-10 07:29N 25°56' W 080°08'0 0.0
2018-Dec-10 06:58N 25°56' W 080°08'0 0.0
2018-Dec-10 06:25N 25°56' W 080°08'0 0.0
2018-Dec-10 05:50N 25°56' W 080°08'0 0.0
2018-Dec-10 05:23N 25°56' W 080°08'0 0.0
2018-Dec-10 04:59N 25°56' W 080°08'0 0.1
2018-Dec-10 04:28N 25°56' W 080°08'0 0.0
2018-Dec-10 03:43N 25°56' W 080°08'0 0.0
2018-Dec-10 03:28N 25°56' W 080°08'1 0.5
2018-Dec-10 02:27N 25°56' W 080°08'2 4.6
2018-Dec-10 02:00N 25°58' W 080°07'2 4.0
2018-Dec-10 01:27N 26°00' W 080°07'2 4.8
2018-Dec-10 00:57N 26°03' W 080°07'3 5.7
2018-Dec-10 00:27N 26°06' W 080°07'2 3.9
2018-Dec-09 23:57N 26°08' W 080°06'2 3.8
2018-Dec-09 23:27N 26°09' W 080°06'2 4.9
2018-Dec-09 22:58N 26°12' W 080°06'3 5.7
2018-Dec-09 22:28N 26°15' W 080°05'3 5.0
2018-Dec-09 21:55N 26°17' W 080°05'3 5.5
2018-Dec-09 21:25N 26°20' W 080°05'3 5.3
2018-Dec-09 20:55N 26°23' W 080°04'30 5.2
2018-Dec-09 15:14N 26°52' W 080°04'1 5.0
2018-Dec-09 14:57N 26°54' W 080°04'2 4.9
2018-Dec-09 14:30N 26°56' W 080°05'1 2.7
2018-Dec-09 14:01N 26°57' W 080°05'1 2.3
2018-Dec-09 13:31N 26°58' W 080°05'1 2.4
2018-Dec-09 13:01N 26°59' W 080°05'2 3.0
2018-Dec-09 12:30N 27°01' W 080°06'  
Track history (hours):
 
Tides and Currents Weather Stations Pressure Air Temp Water Temp Dewpoint Dewpoint Depression Visibility Wind Speed Wind Dir Waves Ship Positions

W.p. Scott

Owner: MOBRO Marine, Inc., Green Cove Springs, FL. More information available from US FCC via Universal Licensing System and Coast Guard Vessel Documentation Center.

Last reported at 2018-Dec-12 17:37 UTC. Time now 2019-Feb-17 07:59 UTC.
Position N 26°59' W 080°05'.
Warning: this ship's position is months out of date.

Length 13 m.

Type: Tug. MMSI: 367761670.

Date/timePositionNaut miles runAvg speedWind from/ knotsBaromVisibWave heightAir tempDewpointWater temp
2018-Dec-12 17:37N 26°59' W 080°05'1 7.1
2018-Dec-12 17:30N 26°58' W 080°05'2 4.5
2018-Dec-12 17:00N 26°56' W 080°05'14 5.6
2018-Dec-12 14:29N 26°42' W 080°03'2 5.1
2018-Dec-12 14:00N 26°40' W 080°03'3 5.7
2018-Dec-12 13:30N 26°37' W 080°03'18 4.5
2018-Dec-12 09:31N 26°19' W 080°05'0 5.3
2018-Dec-12 09:28N 26°19' W 080°05'3 5.3
2018-Dec-12 09:00N 26°16' W 080°05'3 5.2
2018-Dec-12 08:30N 26°14' W 080°06'3 5.1
2018-Dec-12 07:59N 26°11' W 080°06'3 5.2
2018-Dec-12 07:29N 26°08' W 080°06'2 4.4
2018-Dec-12 06:59N 26°06' W 080°07'3 6.0
2018-Dec-12 06:31N 26°03' W 080°07'3 6.0
2018-Dec-12 06:00N 26°00' W 080°07'3 6.2
2018-Dec-12 05:30N 25°57' W 080°08'3 5.8
2018-Dec-12 05:00N 25°54' W 080°08'3 5.4
2018-Dec-12 04:30N 25°52' W 080°09'2 4.7
2018-Dec-12 04:00N 25°50' W 080°10'3 5.6
2018-Dec-12 03:30N 25°47' W 080°11'1 2.7
2018-Dec-12 03:00N 25°46' W 080°10'0 0.0
2018-Dec-12 02:30N 25°46' W 080°10'0 0.0
2018-Dec-12 02:00N 25°46' W 080°10'0 0.0
2018-Dec-12 01:30N 25°46' W 080°10'0 0.0
2018-Dec-12 01:00N 25°46' W 080°10'0 0.0
2018-Dec-12 00:30N 25°46' W 080°10'0 0.0
2018-Dec-11 23:58N 25°46' W 080°10'0 0.0
2018-Dec-11 23:28N 25°46' W 080°10'0 0.0
2018-Dec-11 22:58N 25°46' W 080°10'0 0.0
2018-Dec-11 22:30N 25°46' W 080°10'0 0.0
2018-Dec-11 22:00N 25°46' W 080°10'0 0.0
2018-Dec-11 21:29N 25°46' W 080°10'0 0.0
2018-Dec-11 20:59N 25°46' W 080°10'0 0.0
2018-Dec-11 20:30N 25°46' W 080°10'0 0.0
2018-Dec-11 19:59N 25°46' W 080°10'0 0.0
2018-Dec-11 19:29N 25°46' W 080°10'0 0.0
2018-Dec-11 18:54N 25°46' W 080°10'0 0.0
2018-Dec-11 18:26N 25°46' W 080°10'0 0.0
2018-Dec-11 17:59N 25°46' W 080°10'0 0.0
2018-Dec-11 17:28N 25°46' W 080°10'0 0.0
2018-Dec-11 16:58N 25°46' W 080°10'0 0.0
2018-Dec-11 16:29N 25°46' W 080°10'0 0.0
2018-Dec-11 16:00N 25°46' W 080°10'0 0.0
2018-Dec-11 15:28N 25°46' W 080°10'0 0.0
2018-Dec-11 14:53N 25°46' W 080°10'0 0.0
2018-Dec-11 14:30N 25°46' W 080°10'0 0.0
2018-Dec-11 14:00N 25°46' W 080°10'0 0.0
2018-Dec-11 13:28N 25°46' W 080°10'0 0.0
2018-Dec-11 12:58N 25°46' W 080°10'0 0.0
2018-Dec-11 12:28N 25°46' W 080°10'0 0.0
2018-Dec-11 11:58N 25°46' W 080°10'0 0.0
2018-Dec-11 11:30N 25°46' W 080°10'0 0.0
2018-Dec-11 11:00N 25°46' W 080°10'0 0.0
2018-Dec-11 10:30N 25°46' W 080°10'0 0.0
2018-Dec-11 09:57N 25°46' W 080°10'0 0.0
2018-Dec-11 09:30N 25°46' W 080°10'0 0.0
2018-Dec-11 09:00N 25°46' W 080°10'0 0.6
2018-Dec-11 08:30N 25°46' W 080°10'0 0.0
2018-Dec-11 08:00N 25°46' W 080°10'0 0.0
2018-Dec-11 07:29N 25°46' W 080°10'0 0.0
2018-Dec-11 06:56N 25°46' W 080°10'0 0.0
2018-Dec-11 06:29N 25°46' W 080°10'0 0.0
2018-Dec-11 05:59N 25°46' W 080°10'0 0.0
2018-Dec-11 05:29N 25°46' W 080°10'0 0.0
2018-Dec-11 04:59N 25°46' W 080°10'0 0.0
2018-Dec-11 04:29N 25°46' W 080°10'0 0.0
2018-Dec-11 03:58N 25°46' W 080°10'0 0.0
2018-Dec-11 03:30N 25°46' W 080°10'0 0.0
2018-Dec-11 02:58N 25°46' W 080°10'0 0.0
2018-Dec-11 02:29N 25°46' W 080°10'0 0.0
2018-Dec-11 01:59N 25°46' W 080°10'0 0.0
2018-Dec-11 01:29N 25°46' W 080°10'0 0.0
2018-Dec-11 00:53N 25°46' W 080°10'0 0.0
2018-Dec-11 00:28N 25°46' W 080°10'0 0.0
2018-Dec-11 00:00N 25°46' W 080°10'0 0.0
2018-Dec-10 23:31N 25°46' W 080°10'0 0.0
2018-Dec-10 23:00N 25°46' W 080°10'0 0.0
2018-Dec-10 22:28N 25°46' W 080°10'0 0.0
2018-Dec-10 22:00N 25°46' W 080°10'0 0.0
2018-Dec-10 21:30N 25°46' W 080°10'0 0.0
2018-Dec-10 20:59N 25°46' W 080°10'0 0.0
2018-Dec-10 20:30N 25°46' W 080°10'0 0.0
2018-Dec-10 19:59N 25°46' W 080°10'0 0.0
2018-Dec-10 19:29N 25°46' W 080°10'0 0.0
2018-Dec-10 18:59N 25°46' W 080°10'0 0.0
2018-Dec-10 18:29N 25°46' W 080°10'0 0.0
2018-Dec-10 17:56N 25°46' W 080°10'0 0.0
2018-Dec-10 17:29N 25°46' W 080°10'0 0.0
2018-Dec-10 17:00N 25°46' W 080°10'0 0.0
2018-Dec-10 16:30N 25°46' W 080°10'0 0.0
2018-Dec-10 16:00N 25°46' W 080°10'0 0.0
2018-Dec-10 15:28N 25°46' W 080°10'0 0.0
2018-Dec-10 14:58N 25°46' W 080°10'0 0.0
2018-Dec-10 14:27N 25°46' W 080°10'1 1.4
2018-Dec-10 14:00N 25°47' W 080°11'2 4.2
2018-Dec-10 13:29N 25°49' W 080°11'3 5.1
2018-Dec-10 13:00N 25°51' W 080°10'3 5.6
2018-Dec-10 12:28N 25°54' W 080°08'2 3.9
2018-Dec-10 11:59N 25°56' W 080°08'0 0.0
2018-Dec-10 11:30N 25°56' W 080°08'0 0.0
2018-Dec-10 10:57N 25°56' W 080°08'0 0.2
2018-Dec-10 10:30N 25°56' W 080°08'0 0.0
2018-Dec-10 09:59N 25°56' W 080°08'0 0.0
2018-Dec-10 09:30N 25°56' W 080°08'0 0.0
2018-Dec-10 09:00N 25°56' W 080°08'0 0.0
2018-Dec-10 08:13N 25°56' W 080°08'0 0.0
2018-Dec-10 08:00N 25°56' W 080°08'0 0.0
2018-Dec-10 07:29N 25°56' W 080°08'0 0.0
2018-Dec-10 06:58N 25°56' W 080°08'0 0.0
2018-Dec-10 06:25N 25°56' W 080°08'0 0.0
2018-Dec-10 05:50N 25°56' W 080°08'0 0.0
2018-Dec-10 05:23N 25°56' W 080°08'0 0.0
2018-Dec-10 04:59N 25°56' W 080°08'0 0.1
2018-Dec-10 04:28N 25°56' W 080°08'0 0.0
2018-Dec-10 03:43N 25°56' W 080°08'0 0.0
2018-Dec-10 03:28N 25°56' W 080°08'1 0.5
2018-Dec-10 02:27N 25°56' W 080°08'2 4.6
2018-Dec-10 02:00N 25°58' W 080°07'2 4.0
2018-Dec-10 01:27N 26°00' W 080°07'2 4.8
2018-Dec-10 00:57N 26°03' W 080°07'3 5.7
2018-Dec-10 00:27N 26°06' W 080°07'2 3.9
2018-Dec-09 23:57N 26°08' W 080°06'2 3.8
2018-Dec-09 23:27N 26°09' W 080°06'2 4.9
2018-Dec-09 22:58N 26°12' W 080°06'3 5.7
2018-Dec-09 22:28N 26°15' W 080°05'3 5.0
2018-Dec-09 21:55N 26°17' W 080°05'3 5.5
2018-Dec-09 21:25N 26°20' W 080°05'3 5.3
2018-Dec-09 20:55N 26°23' W 080°04'30 5.2
2018-Dec-09 15:14N 26°52' W 080°04'1 5.0
2018-Dec-09 14:57N 26°54' W 080°04'2 4.9
2018-Dec-09 14:30N 26°56' W 080°05'1 2.7
2018-Dec-09 14:01N 26°57' W 080°05'1 2.3
2018-Dec-09 13:31N 26°58' W 080°05'1 2.4
2018-Dec-09 13:01N 26°59' W 080°05'2 3.0
2018-Dec-09 12:30N 27°01' W 080°06'  

Dump ship's entire track history